sensor_id;sensor_type;location;lat;lon;timestamp;P1;durP1;ratioP1;P2;durP2;ratioP2
9924;SDS011;5001;51.674;7.868;2023-06-24T00:00:14;5.70;;;4.57;;
9924;SDS011;5001;51.674;7.868;2023-06-24T00:02:45;6.60;;;4.72;;
9924;SDS011;5001;51.674;7.868;2023-06-24T00:05:12;7.20;;;5.18;;
9924;SDS011;5001;51.674;7.868;2023-06-24T00:07:39;6.50;;;4.47;;
9924;SDS011;5001;51.674;7.868;2023-06-24T00:10:15;9.10;;;4.68;;
9924;SDS011;5001;51.674;7.868;2023-06-24T00:12:44;6.28;;;4.78;;
9924;SDS011;5001;51.674;7.868;2023-06-24T00:15:11;7.18;;;4.88;;
9924;SDS011;5001;51.674;7.868;2023-06-24T00:17:39;8.50;;;4.97;;
9924;SDS011;5001;51.674;7.868;2023-06-24T00:20:07;7.15;;;4.78;;
9924;SDS011;5001;51.674;7.868;2023-06-24T00:22:38;7.55;;;5.18;;
9924;SDS011;5001;51.674;7.868;2023-06-24T00:25:13;11.38;;;6.07;;
9924;SDS011;5001;51.674;7.868;2023-06-24T00:27:41;6.97;;;5.05;;
9924;SDS011;5001;51.674;7.868;2023-06-24T00:30:10;9.70;;;5.32;;
9924;SDS011;5001;51.674;7.868;2023-06-24T00:32:37;8.88;;;4.95;;
9924;SDS011;5001;51.674;7.868;2023-06-24T00:35:04;6.32;;;5.05;;
9924;SDS011;5001;51.674;7.868;2023-06-24T00:37:32;6.53;;;4.82;;
9924;SDS011;5001;51.674;7.868;2023-06-24T00:39:59;7.13;;;5.10;;
9924;SDS011;5001;51.674;7.868;2023-06-24T00:42:26;6.85;;;4.90;;
9924;SDS011;5001;51.674;7.868;2023-06-24T00:44:53;6.75;;;4.32;;
9924;SDS011;5001;51.674;7.868;2023-06-24T00:47:22;7.22;;;4.88;;
9924;SDS011;5001;51.674;7.868;2023-06-24T00:49:50;5.47;;;4.68;;
9924;SDS011;5001;51.674;7.868;2023-06-24T00:52:19;8.75;;;4.50;;
9924;SDS011;5001;51.674;7.868;2023-06-24T00:54:46;6.88;;;4.68;;
9924;SDS011;5001;51.674;7.868;2023-06-24T00:57:13;7.05;;;4.57;;
9924;SDS011;5001;51.674;7.868;2023-06-24T00:59:41;5.68;;;3.90;;
9924;SDS011;5001;51.674;7.868;2023-06-24T01:02:13;11.43;;;4.60;;
9924;SDS011;5001;51.674;7.868;2023-06-24T01:04:40;4.95;;;4.15;;
9924;SDS011;5001;51.674;7.868;2023-06-24T01:07:07;5.07;;;4.05;;
9924;SDS011;5001;51.674;7.868;2023-06-24T01:09:35;6.88;;;5.13;;
9924;SDS011;5001;51.674;7.868;2023-06-24T01:12:03;7.55;;;5.05;;
9924;SDS011;5001;51.674;7.868;2023-06-24T01:14:30;7.13;;;5.15;;
9924;SDS011;5001;51.674;7.868;2023-06-24T01:17:19;6.75;;;4.50;;
9924;SDS011;5001;51.674;7.868;2023-06-24T01:20:08;9.93;;;5.32;;
9924;SDS011;5001;51.674;7.868;2023-06-24T01:26:09;8.95;;;5.90;;
9924;SDS011;5001;51.674;7.868;2023-06-24T01:29:20;5.85;;;4.88;;
9924;SDS011;5001;51.674;7.868;2023-06-24T01:34:35;8.38;;;5.05;;
9924;SDS011;5001;51.674;7.868;2023-06-24T01:39:56;6.90;;;4.75;;
9924;SDS011;5001;51.674;7.868;2023-06-24T01:42:35;7.30;;;4.60;;
9924;SDS011;5001;51.674;7.868;2023-06-24T01:45:25;5.80;;;4.80;;
9924;SDS011;5001;51.674;7.868;2023-06-24T01:48:02;7.03;;;4.93;;
9924;SDS011;5001;51.674;7.868;2023-06-24T01:50:39;8.57;;;5.25;;
9924;SDS011;5001;51.674;7.868;2023-06-24T01:53:20;7.18;;;5.22;;
9924;SDS011;5001;51.674;7.868;2023-06-24T01:55:49;8.40;;;4.88;;
9924;SDS011;5001;51.674;7.868;2023-06-24T01:58:18;7.45;;;4.82;;
9924;SDS011;5001;51.674;7.868;2023-06-24T02:00:48;12.98;;;5.15;;
9924;SDS011;5001;51.674;7.868;2023-06-24T02:03:17;7.32;;;5.22;;
9924;SDS011;5001;51.674;7.868;2023-06-24T02:05:45;7.38;;;5.40;;
9924;SDS011;5001;51.674;7.868;2023-06-24T02:08:17;9.38;;;5.60;;
9924;SDS011;5001;51.674;7.868;2023-06-24T02:10:47;6.88;;;4.97;;
9924;SDS011;5001;51.674;7.868;2023-06-24T02:13:15;11.53;;;6.60;;
9924;SDS011;5001;51.674;7.868;2023-06-24T02:15:44;6.30;;;5.30;;
9924;SDS011;5001;51.674;7.868;2023-06-24T02:18:13;7.27;;;5.43;;
9924;SDS011;5001;51.674;7.868;2023-06-24T02:20:42;8.13;;;5.75;;
9924;SDS011;5001;51.674;7.868;2023-06-24T02:23:10;5.50;;;4.47;;
9924;SDS011;5001;51.674;7.868;2023-06-24T02:25:42;8.55;;;5.47;;
9924;SDS011;5001;51.674;7.868;2023-06-24T02:28:09;5.75;;;4.72;;
9924;SDS011;5001;51.674;7.868;2023-06-24T02:30:38;7.13;;;4.65;;
9924;SDS011;5001;51.674;7.868;2023-06-24T02:33:06;8.75;;;4.75;;
9924;SDS011;5001;51.674;7.868;2023-06-24T02:35:34;9.95;;;5.15;;
9924;SDS011;5001;51.674;7.868;2023-06-24T02:38:01;6.88;;;5.22;;
9924;SDS011;5001;51.674;7.868;2023-06-24T02:40:29;8.60;;;5.00;;
9924;SDS011;5001;51.674;7.868;2023-06-24T02:42:58;6.82;;;4.65;;
9924;SDS011;5001;51.674;7.868;2023-06-24T02:45:26;6.53;;;4.88;;
9924;SDS011;5001;51.674;7.868;2023-06-24T02:47:55;7.93;;;5.55;;
9924;SDS011;5001;51.674;7.868;2023-06-24T02:50:23;6.72;;;4.82;;
9924;SDS011;5001;51.674;7.868;2023-06-24T02:52:52;7.35;;;4.90;;
9924;SDS011;5001;51.674;7.868;2023-06-24T02:55:23;8.70;;;5.50;;
9924;SDS011;5001;51.674;7.868;2023-06-24T02:57:56;7.15;;;5.53;;
9924;SDS011;5001;51.674;7.868;2023-06-24T03:00:27;8.13;;;6.60;;
9924;SDS011;5001;51.674;7.868;2023-06-24T03:03:07;8.23;;;6.17;;
9924;SDS011;5001;51.674;7.868;2023-06-24T03:05:41;8.07;;;6.00;;
9924;SDS011;5001;51.674;7.868;2023-06-24T03:08:12;9.67;;;5.60;;
9924;SDS011;5001;51.674;7.868;2023-06-24T03:10:41;11.50;;;6.23;;
9924;SDS011;5001;51.674;7.868;2023-06-24T03:13:13;11.70;;;6.83;;
9924;SDS011;5001;51.674;7.868;2023-06-24T03:15:49;9.77;;;6.43;;
9924;SDS011;5001;51.674;7.868;2023-06-24T03:18:17;8.20;;;5.50;;
9924;SDS011;5001;51.674;7.868;2023-06-24T03:20:46;9.30;;;6.27;;
9924;SDS011;5001;51.674;7.868;2023-06-24T03:23:18;12.73;;;7.67;;
9924;SDS011;5001;51.674;7.868;2023-06-24T03:25:45;14.87;;;7.33;;
9924;SDS011;5001;51.674;7.868;2023-06-24T03:28:13;14.20;;;7.27;;
9924;SDS011;5001;51.674;7.868;2023-06-24T03:30:45;13.00;;;6.27;;
9924;SDS011;5001;51.674;7.868;2023-06-24T03:33:16;9.40;;;6.30;;
9924;SDS011;5001;51.674;7.868;2023-06-24T03:35:45;8.45;;;6.65;;
9924;SDS011;5001;51.674;7.868;2023-06-24T03:38:17;17.03;;;7.23;;
9924;SDS011;5001;51.674;7.868;2023-06-24T03:40:48;10.07;;;6.33;;
9924;SDS011;5001;51.674;7.868;2023-06-24T03:43:15;11.10;;;5.40;;
9924;SDS011;5001;51.674;7.868;2023-06-24T03:45:42;9.82;;;6.38;;
9924;SDS011;5001;51.674;7.868;2023-06-24T03:48:10;11.40;;;6.80;;
9924;SDS011;5001;51.674;7.868;2023-06-24T03:50:38;13.82;;;7.15;;
9924;SDS011;5001;51.674;7.868;2023-06-24T03:53:05;11.43;;;6.53;;
9924;SDS011;5001;51.674;7.868;2023-06-24T03:55:33;8.50;;;6.25;;
9924;SDS011;5001;51.674;7.868;2023-06-24T03:58:01;10.45;;;6.60;;
9924;SDS011;5001;51.674;7.868;2023-06-24T04:00:28;10.35;;;6.85;;
9924;SDS011;5001;51.674;7.868;2023-06-24T04:02:56;10.52;;;6.53;;
9924;SDS011;5001;51.674;7.868;2023-06-24T04:05:27;11.27;;;6.68;;
9924;SDS011;5001;51.674;7.868;2023-06-24T04:07:55;9.23;;;6.25;;
9924;SDS011;5001;51.674;7.868;2023-06-24T04:10:23;8.70;;;6.25;;
9924;SDS011;5001;51.674;7.868;2023-06-24T04:12:50;8.35;;;6.18;;
9924;SDS011;5001;51.674;7.868;2023-06-24T04:15:18;12.35;;;6.53;;
9924;SDS011;5001;51.674;7.868;2023-06-24T04:17:47;9.73;;;5.65;;
9924;SDS011;5001;51.674;7.868;2023-06-24T04:20:16;9.52;;;6.35;;
9924;SDS011;5001;51.674;7.868;2023-06-24T04:22:45;8.35;;;6.60;;
9924;SDS011;5001;51.674;7.868;2023-06-24T04:25:12;13.13;;;6.25;;
9924;SDS011;5001;51.674;7.868;2023-06-24T04:27:39;12.52;;;6.72;;
9924;SDS011;5001;51.674;7.868;2023-06-24T04:30:07;9.55;;;5.90;;
9924;SDS011;5001;51.674;7.868;2023-06-24T04:32:35;8.43;;;6.00;;
9924;SDS011;5001;51.674;7.868;2023-06-24T04:35:02;10.00;;;6.38;;
9924;SDS011;5001;51.674;7.868;2023-06-24T04:37:32;12.80;;;5.75;;
9924;SDS011;5001;51.674;7.868;2023-06-24T04:39:59;9.98;;;6.30;;
9924;SDS011;5001;51.674;7.868;2023-06-24T04:42:26;8.40;;;5.32;;
9924;SDS011;5001;51.674;7.868;2023-06-24T04:44:53;11.27;;;6.97;;
9924;SDS011;5001;51.674;7.868;2023-06-24T04:47:20;9.23;;;6.28;;
9924;SDS011;5001;51.674;7.868;2023-06-24T04:49:47;10.77;;;6.15;;
9924;SDS011;5001;51.674;7.868;2023-06-24T04:52:15;12.48;;;5.93;;
9924;SDS011;5001;51.674;7.868;2023-06-24T04:54:42;10.27;;;6.22;;
9924;SDS011;5001;51.674;7.868;2023-06-24T04:57:09;8.48;;;5.43;;
9924;SDS011;5001;51.674;7.868;2023-06-24T04:59:53;9.02;;;5.93;;
9924;SDS011;5001;51.674;7.868;2023-06-24T05:02:20;10.40;;;5.88;;
9924;SDS011;5001;51.674;7.868;2023-06-24T05:04:51;9.50;;;6.28;;
9924;SDS011;5001;51.674;7.868;2023-06-24T05:07:19;11.00;;;7.28;;
9924;SDS011;5001;51.674;7.868;2023-06-24T05:09:46;10.55;;;7.15;;
9924;SDS011;5001;51.674;7.868;2023-06-24T05:12:14;13.40;;;7.35;;
9924;SDS011;5001;51.674;7.868;2023-06-24T05:14:41;9.75;;;6.22;;
9924;SDS011;5001;51.674;7.868;2023-06-24T05:17:09;12.10;;;6.55;;
9924;SDS011;5001;51.674;7.868;2023-06-24T05:19:36;9.98;;;6.82;;
9924;SDS011;5001;51.674;7.868;2023-06-24T05:22:03;8.43;;;6.45;;
9924;SDS011;5001;51.674;7.868;2023-06-24T05:24:31;11.55;;;5.82;;
9924;SDS011;5001;51.674;7.868;2023-06-24T05:27:03;7.40;;;5.90;;
9924;SDS011;5001;51.674;7.868;2023-06-24T05:29:31;10.98;;;5.93;;
9924;SDS011;5001;51.674;7.868;2023-06-24T05:31:59;7.78;;;6.20;;
9924;SDS011;5001;51.674;7.868;2023-06-24T05:34:28;8.00;;;5.88;;
9924;SDS011;5001;51.674;7.868;2023-06-24T05:36:55;8.65;;;5.28;;
9924;SDS011;5001;51.674;7.868;2023-06-24T05:39:22;8.18;;;5.15;;
9924;SDS011;5001;51.674;7.868;2023-06-24T05:41:50;7.22;;;5.30;;
9924;SDS011;5001;51.674;7.868;2023-06-24T05:44:18;10.05;;;5.47;;
9924;SDS011;5001;51.674;7.868;2023-06-24T05:46:46;12.40;;;5.68;;
9924;SDS011;5001;51.674;7.868;2023-06-24T05:49:14;8.38;;;5.47;;
9924;SDS011;5001;51.674;7.868;2023-06-24T05:51:41;13.48;;;5.82;;
9924;SDS011;5001;51.674;7.868;2023-06-24T05:54:08;8.65;;;5.50;;
9924;SDS011;5001;51.674;7.868;2023-06-24T05:56:35;11.23;;;5.50;;
9924;SDS011;5001;51.674;7.868;2023-06-24T05:59:05;8.07;;;5.43;;
9924;SDS011;5001;51.674;7.868;2023-06-24T06:01:32;7.82;;;4.80;;
9924;SDS011;5001;51.674;7.868;2023-06-24T06:03:59;7.00;;;4.95;;
9924;SDS011;5001;51.674;7.868;2023-06-24T06:06:27;6.47;;;5.05;;
9924;SDS011;5001;51.674;7.868;2023-06-24T06:08:55;9.02;;;4.78;;
9924;SDS011;5001;51.674;7.868;2023-06-24T06:11:23;7.10;;;5.05;;
9924;SDS011;5001;51.674;7.868;2023-06-24T06:13:50;8.18;;;5.15;;
9924;SDS011;5001;51.674;7.868;2023-06-24T06:16:18;6.50;;;4.85;;
9924;SDS011;5001;51.674;7.868;2023-06-24T06:18:46;9.45;;;5.20;;
9924;SDS011;5001;51.674;7.868;2023-06-24T06:21:14;12.82;;;5.68;;
9924;SDS011;5001;51.674;7.868;2023-06-24T06:23:42;5.70;;;4.65;;
9924;SDS011;5001;51.674;7.868;2023-06-24T06:26:10;6.05;;;4.47;;
9924;SDS011;5001;51.674;7.868;2023-06-24T06:28:37;7.40;;;4.88;;
9924;SDS011;5001;51.674;7.868;2023-06-24T06:31:05;8.57;;;4.78;;
9924;SDS011;5001;51.674;7.868;2023-06-24T06:33:34;6.63;;;4.85;;
9924;SDS011;5001;51.674;7.868;2023-06-24T06:36:01;5.68;;;4.45;;
9924;SDS011;5001;51.674;7.868;2023-06-24T06:38:29;9.15;;;4.97;;
9924;SDS011;5001;51.674;7.868;2023-06-24T06:40:56;6.28;;;4.65;;
9924;SDS011;5001;51.674;7.868;2023-06-24T06:43:26;6.03;;;4.15;;
9924;SDS011;5001;51.674;7.868;2023-06-24T06:45:54;5.47;;;4.18;;
9924;SDS011;5001;51.674;7.868;2023-06-24T06:48:23;6.32;;;4.15;;
9924;SDS011;5001;51.674;7.868;2023-06-24T06:50:50;6.35;;;4.88;;
9924;SDS011;5001;51.674;7.868;2023-06-24T06:53:21;7.93;;;5.28;;
9924;SDS011;5001;51.674;7.868;2023-06-24T06:55:48;5.57;;;4.65;;
9924;SDS011;5001;51.674;7.868;2023-06-24T06:58:16;6.80;;;5.10;;
9924;SDS011;5001;51.674;7.868;2023-06-24T07:00:44;5.95;;;4.22;;
9924;SDS011;5001;51.674;7.868;2023-06-24T07:03:16;9.02;;;4.38;;
9924;SDS011;5001;51.674;7.868;2023-06-24T07:05:45;4.88;;;4.15;;
9924;SDS011;5001;51.674;7.868;2023-06-24T07:08:14;5.03;;;3.95;;
9924;SDS011;5001;51.674;7.868;2023-06-24T07:10:41;4.57;;;4.10;;
9924;SDS011;5001;51.674;7.868;2023-06-24T07:13:09;5.25;;;3.75;;
9924;SDS011;5001;51.674;7.868;2023-06-24T07:15:35;6.80;;;4.10;;
9924;SDS011;5001;51.674;7.868;2023-06-24T07:18:03;5.90;;;4.30;;
9924;SDS011;5001;51.674;7.868;2023-06-24T07:20:30;4.18;;;3.78;;
9924;SDS011;5001;51.674;7.868;2023-06-24T07:22:57;6.50;;;3.83;;
9924;SDS011;5001;51.674;7.868;2023-06-24T07:25:24;3.88;;;3.53;;
9924;SDS011;5001;51.674;7.868;2023-06-24T07:27:52;6.35;;;3.53;;
9924;SDS011;5001;51.674;7.868;2023-06-24T07:30:20;7.15;;;3.70;;
9924;SDS011;5001;51.674;7.868;2023-06-24T07:32:47;5.43;;;3.55;;
9924;SDS011;5001;51.674;7.868;2023-06-24T07:35:14;6.82;;;3.65;;
9924;SDS011;5001;51.674;7.868;2023-06-24T07:37:42;5.28;;;3.63;;
9924;SDS011;5001;51.674;7.868;2023-06-24T07:40:10;5.45;;;3.58;;
9924;SDS011;5001;51.674;7.868;2023-06-24T07:42:38;6.13;;;3.55;;
9924;SDS011;5001;51.674;7.868;2023-06-24T07:45:05;8.10;;;4.50;;
9924;SDS011;5001;51.674;7.868;2023-06-24T07:47:32;4.30;;;3.63;;
9924;SDS011;5001;51.674;7.868;2023-06-24T07:50:01;6.07;;;3.60;;
9924;SDS011;5001;51.674;7.868;2023-06-24T07:52:29;3.80;;;3.13;;
9924;SDS011;5001;51.674;7.868;2023-06-24T07:54:56;5.43;;;3.53;;
9924;SDS011;5001;51.674;7.868;2023-06-24T07:57:23;4.05;;;3.17;;
9924;SDS011;5001;51.674;7.868;2023-06-24T07:59:53;4.25;;;3.20;;
9924;SDS011;5001;51.674;7.868;2023-06-24T08:02:21;3.75;;;3.25;;
9924;SDS011;5001;51.674;7.868;2023-06-24T08:04:50;4.10;;;3.28;;
9924;SDS011;5001;51.674;7.868;2023-06-24T08:07:19;5.13;;;3.15;;
9924;SDS011;5001;51.674;7.868;2023-06-24T08:09:46;4.80;;;3.50;;
9924;SDS011;5001;51.674;7.868;2023-06-24T08:12:14;5.18;;;3.92;;
9924;SDS011;5001;51.674;7.868;2023-06-24T08:14:41;7.95;;;3.78;;
9924;SDS011;5001;51.674;7.868;2023-06-24T08:17:10;4.57;;;3.20;;
9924;SDS011;5001;51.674;7.868;2023-06-24T08:19:37;3.95;;;3.53;;
9924;SDS011;5001;51.674;7.868;2023-06-24T08:22:04;4.78;;;3.45;;
9924;SDS011;5001;51.674;7.868;2023-06-24T08:24:32;5.85;;;3.67;;
9924;SDS011;5001;51.674;7.868;2023-06-24T08:26:59;4.40;;;3.25;;
9924;SDS011;5001;51.674;7.868;2023-06-24T08:29:26;7.05;;;3.55;;
9924;SDS011;5001;51.674;7.868;2023-06-24T08:31:53;6.82;;;3.42;;
9924;SDS011;5001;51.674;7.868;2023-06-24T08:34:23;5.15;;;4.10;;
9924;SDS011;5001;51.674;7.868;2023-06-24T08:37:00;6.82;;;4.30;;
9924;SDS011;5001;51.674;7.868;2023-06-24T08:39:28;4.80;;;4.07;;
9924;SDS011;5001;51.674;7.868;2023-06-24T08:41:55;7.15;;;3.97;;
9924;SDS011;5001;51.674;7.868;2023-06-24T08:44:23;6.03;;;3.75;;
9924;SDS011;5001;51.674;7.868;2023-06-24T08:46:50;5.55;;;4.50;;
9924;SDS011;5001;51.674;7.868;2023-06-24T08:51:56;7.10;;;3.90;;
9924;SDS011;5001;51.674;7.868;2023-06-24T08:54:25;6.72;;;4.20;;
9924;SDS011;5001;51.674;7.868;2023-06-24T08:56:52;7.32;;;4.20;;
9924;SDS011;5001;51.674;7.868;2023-06-24T08:59:19;4.65;;;4.25;;
9924;SDS011;5001;51.674;7.868;2023-06-24T09:01:47;5.90;;;4.13;;
9924;SDS011;5001;51.674;7.868;2023-06-24T09:04:16;4.28;;;3.47;;
9924;SDS011;5001;51.674;7.868;2023-06-24T09:06:44;4.72;;;3.72;;
9924;SDS011;5001;51.674;7.868;2023-06-24T09:09:21;10.40;;;4.20;;
9924;SDS011;5001;51.674;7.868;2023-06-24T09:11:58;5.15;;;3.75;;
9924;SDS011;5001;51.674;7.868;2023-06-24T09:14:26;5.20;;;4.38;;
9924;SDS011;5001;51.674;7.868;2023-06-24T09:19:26;4.05;;;3.65;;
9924;SDS011;5001;51.674;7.868;2023-06-24T09:22:00;4.38;;;3.20;;
9924;SDS011;5001;51.674;7.868;2023-06-24T09:24:30;7.43;;;4.13;;
9924;SDS011;5001;51.674;7.868;2023-06-24T09:26:58;4.97;;;3.53;;
9924;SDS011;5001;51.674;7.868;2023-06-24T09:29:25;7.20;;;4.10;;
9924;SDS011;5001;51.674;7.868;2023-06-24T09:31:56;5.05;;;3.78;;
9924;SDS011;5001;51.674;7.868;2023-06-24T09:34:25;6.65;;;4.22;;
9924;SDS011;5001;51.674;7.868;2023-06-24T09:36:55;5.72;;;4.18;;
9924;SDS011;5001;51.674;7.868;2023-06-24T09:39:23;4.28;;;3.58;;
9924;SDS011;5001;51.674;7.868;2023-06-24T09:41:58;4.20;;;3.47;;
9924;SDS011;5001;51.674;7.868;2023-06-24T09:44:27;4.75;;;4.22;;
9924;SDS011;5001;51.674;7.868;2023-06-24T09:46:55;7.18;;;5.15;;
9924;SDS011;5001;51.674;7.868;2023-06-24T09:49:22;10.88;;;4.28;;
9924;SDS011;5001;51.674;7.868;2023-06-24T09:51:50;6.75;;;4.70;;
9924;SDS011;5001;51.674;7.868;2023-06-24T09:54:21;5.00;;;3.70;;
9924;SDS011;5001;51.674;7.868;2023-06-24T09:56:50;4.75;;;3.85;;
9924;SDS011;5001;51.674;7.868;2023-06-24T09:59:20;5.85;;;4.25;;
9924;SDS011;5001;51.674;7.868;2023-06-24T10:01:49;8.32;;;4.80;;
9924;SDS011;5001;51.674;7.868;2023-06-24T10:04:19;7.82;;;4.57;;
9924;SDS011;5001;51.674;7.868;2023-06-24T10:06:48;7.53;;;4.38;;
9924;SDS011;5001;51.674;7.868;2023-06-24T10:09:15;6.70;;;4.15;;
9924;SDS011;5001;51.674;7.868;2023-06-24T10:11:45;5.68;;;4.43;;
9924;SDS011;5001;51.674;7.868;2023-06-24T10:14:13;5.97;;;4.10;;
9924;SDS011;5001;51.674;7.868;2023-06-24T10:16:42;4.93;;;3.83;;
9924;SDS011;5001;51.674;7.868;2023-06-24T10:19:09;6.15;;;4.45;;
9924;SDS011;5001;51.674;7.868;2023-06-24T10:21:50;5.85;;;5.22;;
9924;SDS011;5001;51.674;7.868;2023-06-24T10:27:02;8.57;;;4.13;;
9924;SDS011;5001;51.674;7.868;2023-06-24T10:29:33;6.55;;;4.32;;
9924;SDS011;5001;51.674;7.868;2023-06-24T10:32:05;9.27;;;5.20;;
9924;SDS011;5001;51.674;7.868;2023-06-24T10:44:54;6.38;;;3.97;;
9924;SDS011;5001;51.674;7.868;2023-06-24T10:47:22;6.10;;;3.83;;
9924;SDS011;5001;51.674;7.868;2023-06-24T10:49:51;4.55;;;3.78;;
9924;SDS011;5001;51.674;7.868;2023-06-24T10:52:19;4.82;;;4.03;;
9924;SDS011;5001;51.674;7.868;2023-06-24T10:54:48;5.85;;;4.43;;
9924;SDS011;5001;51.674;7.868;2023-06-24T10:57:16;6.03;;;4.22;;
9924;SDS011;5001;51.674;7.868;2023-06-24T10:59:51;5.25;;;3.53;;
9924;SDS011;5001;51.674;7.868;2023-06-24T11:02:21;4.43;;;3.47;;
9924;SDS011;5001;51.674;7.868;2023-06-24T11:04:53;6.18;;;3.83;;
9924;SDS011;5001;51.674;7.868;2023-06-24T11:07:31;5.90;;;4.10;;
9924;SDS011;5001;51.674;7.868;2023-06-24T11:10:05;3.90;;;3.50;;
9924;SDS011;5001;51.674;7.868;2023-06-24T11:12:37;7.13;;;3.97;;
9924;SDS011;5001;51.674;7.868;2023-06-24T11:15:06;5.60;;;3.38;;
9924;SDS011;5001;51.674;7.868;2023-06-24T11:17:36;7.75;;;3.60;;
9924;SDS011;5001;51.674;7.868;2023-06-24T11:20:08;5.95;;;4.00;;
9924;SDS011;5001;51.674;7.868;2023-06-24T11:22:41;4.85;;;3.72;;
9924;SDS011;5001;51.674;7.868;2023-06-24T11:25:16;5.63;;;3.85;;
9924;SDS011;5001;51.674;7.868;2023-06-24T11:27:51;4.68;;;3.22;;
9924;SDS011;5001;51.674;7.868;2023-06-24T11:30:21;4.75;;;3.38;;
9924;SDS011;5001;51.674;7.868;2023-06-24T11:32:48;3.80;;;3.13;;
9924;SDS011;5001;51.674;7.868;2023-06-24T11:35:17;4.18;;;2.95;;
9924;SDS011;5001;51.674;7.868;2023-06-24T11:37:45;3.40;;;3.10;;
9924;SDS011;5001;51.674;7.868;2023-06-24T11:40:17;5.38;;;3.35;;
9924;SDS011;5001;51.674;7.868;2023-06-24T11:42:49;4.43;;;3.70;;
9924;SDS011;5001;51.674;7.868;2023-06-24T11:45:20;7.38;;;3.35;;
9924;SDS011;5001;51.674;7.868;2023-06-24T11:47:49;6.32;;;3.53;;
9924;SDS011;5001;51.674;7.868;2023-06-24T11:50:16;3.63;;;2.75;;
9924;SDS011;5001;51.674;7.868;2023-06-24T11:52:47;5.85;;;3.15;;
9924;SDS011;5001;51.674;7.868;2023-06-24T11:55:24;5.72;;;2.83;;
9924;SDS011;5001;51.674;7.868;2023-06-24T11:57:57;3.72;;;3.10;;
9924;SDS011;5001;51.674;7.868;2023-06-24T12:00:38;3.15;;;2.80;;
9924;SDS011;5001;51.674;7.868;2023-06-24T12:03:11;3.42;;;2.80;;
9924;SDS011;5001;51.674;7.868;2023-06-24T12:05:39;3.40;;;2.78;;
9924;SDS011;5001;51.674;7.868;2023-06-24T12:08:12;5.70;;;2.63;;
9924;SDS011;5001;51.674;7.868;2023-06-24T12:10:43;3.60;;;2.90;;
9924;SDS011;5001;51.674;7.868;2023-06-24T12:13:12;3.70;;;2.85;;
9924;SDS011;5001;51.674;7.868;2023-06-24T12:15:39;4.93;;;3.05;;
9924;SDS011;5001;51.674;7.868;2023-06-24T12:18:07;3.65;;;2.97;;
9924;SDS011;5001;51.674;7.868;2023-06-24T12:20:43;4.53;;;2.92;;
9924;SDS011;5001;51.674;7.868;2023-06-24T12:23:11;5.03;;;2.58;;
9924;SDS011;5001;51.674;7.868;2023-06-24T12:25:38;3.22;;;2.50;;
9924;SDS011;5001;51.674;7.868;2023-06-24T12:28:06;3.22;;;2.50;;
9924;SDS011;5001;51.674;7.868;2023-06-24T12:30:35;3.08;;;2.50;;
9924;SDS011;5001;51.674;7.868;2023-06-24T12:33:03;4.43;;;2.80;;
9924;SDS011;5001;51.674;7.868;2023-06-24T12:35:30;3.22;;;2.33;;
9924;SDS011;5001;51.674;7.868;2023-06-24T12:37:59;4.22;;;2.78;;
9924;SDS011;5001;51.674;7.868;2023-06-24T12:40:26;2.78;;;2.47;;
9924;SDS011;5001;51.674;7.868;2023-06-24T12:42:57;4.72;;;3.25;;
9924;SDS011;5001;51.674;7.868;2023-06-24T12:45:26;3.97;;;2.60;;
9924;SDS011;5001;51.674;7.868;2023-06-24T12:47:53;4.78;;;3.10;;
9924;SDS011;5001;51.674;7.868;2023-06-24T12:50:20;3.47;;;2.75;;
9924;SDS011;5001;51.674;7.868;2023-06-24T12:52:47;3.00;;;2.53;;
9924;SDS011;5001;51.674;7.868;2023-06-24T12:55:14;3.13;;;2.47;;
9924;SDS011;5001;51.674;7.868;2023-06-24T12:57:42;4.32;;;2.63;;
9924;SDS011;5001;51.674;7.868;2023-06-24T13:00:11;6.90;;;2.92;;
9924;SDS011;5001;51.674;7.868;2023-06-24T13:02:39;6.20;;;2.45;;
9924;SDS011;5001;51.674;7.868;2023-06-24T13:05:06;3.70;;;2.92;;
9924;SDS011;5001;51.674;7.868;2023-06-24T13:07:33;4.85;;;2.55;;
9924;SDS011;5001;51.674;7.868;2023-06-24T13:10:00;5.57;;;2.67;;
9924;SDS011;5001;51.674;7.868;2023-06-24T13:12:29;4.43;;;2.40;;
9924;SDS011;5001;51.674;7.868;2023-06-24T13:14:56;2.95;;;2.10;;
9924;SDS011;5001;51.674;7.868;2023-06-24T13:17:23;3.08;;;2.70;;
9924;SDS011;5001;51.674;7.868;2023-06-24T13:19:52;3.75;;;2.55;;
9924;SDS011;5001;51.674;7.868;2023-06-24T13:22:20;2.60;;;2.40;;
9924;SDS011;5001;51.674;7.868;2023-06-24T13:24:48;3.78;;;2.60;;
9924;SDS011;5001;51.674;7.868;2023-06-24T13:27:15;3.65;;;2.67;;
9924;SDS011;5001;51.674;7.868;2023-06-24T13:29:43;2.80;;;2.20;;
9924;SDS011;5001;51.674;7.868;2023-06-24T13:32:10;3.53;;;2.47;;
9924;SDS011;5001;51.674;7.868;2023-06-24T13:34:39;2.50;;;2.13;;
9924;SDS011;5001;51.674;7.868;2023-06-24T13:37:06;2.95;;;2.35;;
9924;SDS011;5001;51.674;7.868;2023-06-24T13:39:33;4.85;;;2.63;;
9924;SDS011;5001;51.674;7.868;2023-06-24T13:42:00;2.95;;;2.35;;
9924;SDS011;5001;51.674;7.868;2023-06-24T13:44:29;3.53;;;2.58;;
9924;SDS011;5001;51.674;7.868;2023-06-24T13:46:58;5.38;;;2.60;;
9924;SDS011;5001;51.674;7.868;2023-06-24T13:49:25;3.22;;;2.28;;
9924;SDS011;5001;51.674;7.868;2023-06-24T13:51:53;4.43;;;2.53;;
9924;SDS011;5001;51.674;7.868;2023-06-24T13:54:20;4.75;;;2.45;;
9924;SDS011;5001;51.674;7.868;2023-06-24T13:56:48;3.42;;;2.42;;
9924;SDS011;5001;51.674;7.868;2023-06-24T13:59:16;2.75;;;2.33;;
9924;SDS011;5001;51.674;7.868;2023-06-24T14:01:43;3.33;;;2.55;;
9924;SDS011;5001;51.674;7.868;2023-06-24T14:04:11;3.10;;;2.22;;
9924;SDS011;5001;51.674;7.868;2023-06-24T14:06:38;2.90;;;2.60;;
9924;SDS011;5001;51.674;7.868;2023-06-24T14:09:05;3.53;;;2.42;;
9924;SDS011;5001;51.674;7.868;2023-06-24T14:11:32;3.00;;;2.33;;
9924;SDS011;5001;51.674;7.868;2023-06-24T14:13:59;2.67;;;2.13;;
9924;SDS011;5001;51.674;7.868;2023-06-24T14:16:28;3.80;;;2.45;;
9924;SDS011;5001;51.674;7.868;2023-06-24T14:18:56;3.28;;;2.30;;
9924;SDS011;5001;51.674;7.868;2023-06-24T14:21:24;3.25;;;2.38;;
9924;SDS011;5001;51.674;7.868;2023-06-24T14:23:51;3.22;;;2.40;;
9924;SDS011;5001;51.674;7.868;2023-06-24T14:26:22;3.42;;;2.35;;
9924;SDS011;5001;51.674;7.868;2023-06-24T14:28:53;3.55;;;2.60;;
9924;SDS011;5001;51.674;7.868;2023-06-24T14:31:20;4.75;;;2.28;;
9924;SDS011;5001;51.674;7.868;2023-06-24T14:33:49;3.50;;;2.50;;
9924;SDS011;5001;51.674;7.868;2023-06-24T14:36:19;4.25;;;2.63;;
9924;SDS011;5001;51.674;7.868;2023-06-24T14:38:48;5.60;;;2.95;;
9924;SDS011;5001;51.674;7.868;2023-06-24T14:41:15;3.05;;;2.28;;
9924;SDS011;5001;51.674;7.868;2023-06-24T14:43:42;4.68;;;2.85;;
9924;SDS011;5001;51.674;7.868;2023-06-24T14:46:10;3.17;;;2.40;;
9924;SDS011;5001;51.674;7.868;2023-06-24T14:48:38;4.03;;;2.72;;
9924;SDS011;5001;51.674;7.868;2023-06-24T14:51:05;3.05;;;2.63;;
9924;SDS011;5001;51.674;7.868;2023-06-24T14:53:32;4.85;;;2.30;;
9924;SDS011;5001;51.674;7.868;2023-06-24T14:56:00;3.97;;;2.20;;
9924;SDS011;5001;51.674;7.868;2023-06-24T14:58:27;5.15;;;2.70;;
9924;SDS011;5001;51.674;7.868;2023-06-24T15:00:56;3.22;;;2.33;;
9924;SDS011;5001;51.674;7.868;2023-06-24T15:03:24;3.95;;;2.63;;
9924;SDS011;5001;51.674;7.868;2023-06-24T15:05:51;3.83;;;2.35;;
9924;SDS011;5001;51.674;7.868;2023-06-24T15:08:18;3.53;;;2.83;;
9924;SDS011;5001;51.674;7.868;2023-06-24T15:10:49;3.22;;;2.83;;
9924;SDS011;5001;51.674;7.868;2023-06-24T15:13:18;3.15;;;2.53;;
9924;SDS011;5001;51.674;7.868;2023-06-24T15:15:46;2.75;;;2.28;;
9924;SDS011;5001;51.674;7.868;2023-06-24T15:18:13;3.17;;;2.28;;
9924;SDS011;5001;51.674;7.868;2023-06-24T15:20:42;3.80;;;2.42;;
9924;SDS011;5001;51.674;7.868;2023-06-24T15:23:09;4.13;;;2.50;;
9924;SDS011;5001;51.674;7.868;2023-06-24T15:25:37;2.95;;;2.22;;
9924;SDS011;5001;51.674;7.868;2023-06-24T15:28:04;3.80;;;2.20;;
9924;SDS011;5001;51.674;7.868;2023-06-24T15:30:31;4.60;;;2.63;;
9924;SDS011;5001;51.674;7.868;2023-06-24T15:33:00;3.42;;;2.55;;
9924;SDS011;5001;51.674;7.868;2023-06-24T15:35:27;4.53;;;2.40;;
9924;SDS011;5001;51.674;7.868;2023-06-24T15:37:54;4.63;;;2.65;;
9924;SDS011;5001;51.674;7.868;2023-06-24T15:40:22;4.10;;;2.55;;
9924;SDS011;5001;51.674;7.868;2023-06-24T15:42:50;6.38;;;2.78;;
9924;SDS011;5001;51.674;7.868;2023-06-24T15:45:17;5.80;;;2.42;;
9924;SDS011;5001;51.674;7.868;2023-06-24T15:47:44;3.83;;;2.88;;
9924;SDS011;5001;51.674;7.868;2023-06-24T15:50:11;3.67;;;2.40;;
9924;SDS011;5001;51.674;7.868;2023-06-24T15:52:39;4.45;;;2.65;;